sensor_id;sensor_type;location;lat;lon;timestamp;P1;durP1;ratioP1;P2;durP2;ratioP2
52266;SDS011;38223;50.940;4.034;2023-05-07T00:01:55;11.30;;;5.50;;
52266;SDS011;38223;50.940;4.034;2023-05-07T00:04:25;11.08;;;5.62;;
52266;SDS011;38223;50.940;4.034;2023-05-07T00:06:57;13.15;;;5.97;;
52266;SDS011;38223;50.940;4.034;2023-05-07T00:09:31;9.43;;;5.53;;
52266;SDS011;38223;50.940;4.034;2023-05-07T00:12:02;12.78;;;5.45;;
52266;SDS011;38223;50.940;4.034;2023-05-07T00:14:34;12.68;;;4.87;;
52266;SDS011;38223;50.940;4.034;2023-05-07T00:17:04;13.90;;;5.20;;
52266;SDS011;38223;50.940;4.034;2023-05-07T00:19:38;12.68;;;5.70;;
52266;SDS011;38223;50.940;4.034;2023-05-07T00:22:28;10.38;;;5.15;;
52266;SDS011;38223;50.940;4.034;2023-05-07T00:25:01;11.80;;;4.60;;
52266;SDS011;38223;50.940;4.034;2023-05-07T00:27:31;10.65;;;4.90;;
52266;SDS011;38223;50.940;4.034;2023-05-07T00:32:31;15.50;;;5.00;;
52266;SDS011;38223;50.940;4.034;2023-05-07T00:35:03;12.10;;;4.50;;
52266;SDS011;38223;50.940;4.034;2023-05-07T00:37:39;9.55;;;4.37;;
52266;SDS011;38223;50.940;4.034;2023-05-07T00:40:28;13.05;;;4.50;;
52266;SDS011;38223;50.940;4.034;2023-05-07T00:42:59;10.68;;;4.60;;
52266;SDS011;38223;50.940;4.034;2023-05-07T00:45:28;10.68;;;4.80;;
52266;SDS011;38223;50.940;4.034;2023-05-07T00:50:52;8.65;;;4.75;;
52266;SDS011;38223;50.940;4.034;2023-05-07T00:53:27;9.03;;;4.97;;
52266;SDS011;38223;50.940;4.034;2023-05-07T00:55:57;9.53;;;4.92;;
52266;SDS011;38223;50.940;4.034;2023-05-07T00:58:30;9.30;;;5.08;;
52266;SDS011;38223;50.940;4.034;2023-05-07T01:01:02;13.65;;;5.47;;
52266;SDS011;38223;50.940;4.034;2023-05-07T01:06:02;18.42;;;5.55;;
52266;SDS011;38223;50.940;4.034;2023-05-07T01:08:35;14.18;;;5.40;;
52266;SDS011;38223;50.940;4.034;2023-05-07T01:11:11;8.78;;;4.95;;
52266;SDS011;38223;50.940;4.034;2023-05-07T01:13:42;14.80;;;5.10;;
52266;SDS011;38223;50.940;4.034;2023-05-07T01:16:18;10.98;;;5.70;;
52266;SDS011;38223;50.940;4.034;2023-05-07T01:18:48;11.03;;;5.40;;
52266;SDS011;38223;50.940;4.034;2023-05-07T01:21:24;15.18;;;5.37;;
52266;SDS011;38223;50.940;4.034;2023-05-07T01:23:55;11.53;;;5.20;;
52266;SDS011;38223;50.940;4.034;2023-05-07T01:26:34;12.90;;;5.70;;
52266;SDS011;38223;50.940;4.034;2023-05-07T01:29:04;8.98;;;5.22;;
52266;SDS011;38223;50.940;4.034;2023-05-07T01:31:38;12.50;;;6.03;;
52266;SDS011;38223;50.940;4.034;2023-05-07T01:34:08;16.62;;;5.72;;
52266;SDS011;38223;50.940;4.034;2023-05-07T01:36:47;10.90;;;5.92;;
52266;SDS011;38223;50.940;4.034;2023-05-07T01:39:17;10.10;;;5.17;;
52266;SDS011;38223;50.940;4.034;2023-05-07T01:41:48;9.78;;;5.05;;
52266;SDS011;38223;50.940;4.034;2023-05-07T01:44:21;12.50;;;6.00;;
52266;SDS011;38223;50.940;4.034;2023-05-07T01:46:53;11.85;;;6.30;;
52266;SDS011;38223;50.940;4.034;2023-05-07T01:49:27;14.60;;;5.55;;
52266;SDS011;38223;50.940;4.034;2023-05-07T01:51:59;14.18;;;5.90;;
52266;SDS011;38223;50.940;4.034;2023-05-07T01:54:34;14.83;;;6.67;;
52266;SDS011;38223;50.940;4.034;2023-05-07T01:57:06;15.08;;;6.25;;
52266;SDS011;38223;50.940;4.034;2023-05-07T01:59:43;13.90;;;6.65;;
52266;SDS011;38223;50.940;4.034;2023-05-07T02:02:15;11.83;;;6.42;;
52266;SDS011;38223;50.940;4.034;2023-05-07T02:04:47;11.80;;;5.87;;
52266;SDS011;38223;50.940;4.034;2023-05-07T02:07:20;10.43;;;5.20;;
52266;SDS011;38223;50.940;4.034;2023-05-07T02:09:50;10.70;;;5.42;;
52266;SDS011;38223;50.940;4.034;2023-05-07T02:12:22;11.73;;;5.75;;
52266;SDS011;38223;50.940;4.034;2023-05-07T02:15:00;10.55;;;5.80;;
52266;SDS011;38223;50.940;4.034;2023-05-07T02:17:30;14.87;;;6.50;;
52266;SDS011;38223;50.940;4.034;2023-05-07T02:20:00;16.17;;;6.20;;
52266;SDS011;38223;50.940;4.034;2023-05-07T02:22:35;10.70;;;6.05;;
52266;SDS011;38223;50.940;4.034;2023-05-07T02:25:06;10.50;;;5.40;;
52266;SDS011;38223;50.940;4.034;2023-05-07T02:27:38;10.85;;;5.83;;
52266;SDS011;38223;50.940;4.034;2023-05-07T02:32:38;10.23;;;4.95;;
52266;SDS011;38223;50.940;4.034;2023-05-07T02:35:10;11.40;;;5.10;;
52266;SDS011;38223;50.940;4.034;2023-05-07T02:37:47;8.58;;;5.28;;
52266;SDS011;38223;50.940;4.034;2023-05-07T02:40:17;11.50;;;5.92;;
52266;SDS011;38223;50.940;4.034;2023-05-07T02:42:51;13.83;;;5.55;;
52266;SDS011;38223;50.940;4.034;2023-05-07T02:45:21;11.97;;;5.05;;
52266;SDS011;38223;50.940;4.034;2023-05-07T02:47:52;9.63;;;5.70;;
52266;SDS011;38223;50.940;4.034;2023-05-07T02:50:23;8.63;;;4.58;;
52266;SDS011;38223;50.940;4.034;2023-05-07T02:53:00;7.53;;;4.95;;
52266;SDS011;38223;50.940;4.034;2023-05-07T02:55:32;11.88;;;5.87;;
52266;SDS011;38223;50.940;4.034;2023-05-07T02:58:02;8.50;;;4.87;;
52266;SDS011;38223;50.940;4.034;2023-05-07T03:00:33;10.38;;;4.87;;
52266;SDS011;38223;50.940;4.034;2023-05-07T03:03:09;11.10;;;4.70;;
52266;SDS011;38223;50.940;4.034;2023-05-07T03:05:39;6.85;;;4.62;;
52266;SDS011;38223;50.940;4.034;2023-05-07T03:08:08;11.97;;;5.17;;
52266;SDS011;38223;50.940;4.034;2023-05-07T03:10:39;7.28;;;4.22;;
52266;SDS011;38223;50.940;4.034;2023-05-07T03:13:13;7.30;;;4.47;;
52266;SDS011;38223;50.940;4.034;2023-05-07T03:15:42;6.40;;;4.75;;
52266;SDS011;38223;50.940;4.034;2023-05-07T03:18:15;7.05;;;4.80;;
52266;SDS011;38223;50.940;4.034;2023-05-07T03:20:50;12.33;;;5.08;;
52266;SDS011;38223;50.940;4.034;2023-05-07T03:23:22;8.33;;;5.12;;
52266;SDS011;38223;50.940;4.034;2023-05-07T03:25:53;11.12;;;5.60;;
52266;SDS011;38223;50.940;4.034;2023-05-07T03:28:24;9.98;;;4.78;;
52266;SDS011;38223;50.940;4.034;2023-05-07T03:30:58;8.95;;;5.35;;
52266;SDS011;38223;50.940;4.034;2023-05-07T03:33:28;8.00;;;5.15;;
52266;SDS011;38223;50.940;4.034;2023-05-07T03:36:01;12.53;;;5.15;;
52266;SDS011;38223;50.940;4.034;2023-05-07T03:38:30;9.23;;;4.85;;
52266;SDS011;38223;50.940;4.034;2023-05-07T03:41:02;11.53;;;5.08;;
52266;SDS011;38223;50.940;4.034;2023-05-07T03:43:40;9.88;;;4.90;;
52266;SDS011;38223;50.940;4.034;2023-05-07T03:46:10;9.95;;;5.22;;
52266;SDS011;38223;50.940;4.034;2023-05-07T03:48:41;9.48;;;4.87;;
52266;SDS011;38223;50.940;4.034;2023-05-07T03:51:11;9.55;;;5.33;;
52266;SDS011;38223;50.940;4.034;2023-05-07T03:53:44;9.40;;;5.35;;
52266;SDS011;38223;50.940;4.034;2023-05-07T03:56:19;10.43;;;5.12;;
52266;SDS011;38223;50.940;4.034;2023-05-07T03:58:49;10.18;;;5.08;;
52266;SDS011;38223;50.940;4.034;2023-05-07T04:01:24;7.83;;;5.10;;
52266;SDS011;38223;50.940;4.034;2023-05-07T04:04:12;11.45;;;5.62;;
52266;SDS011;38223;50.940;4.034;2023-05-07T04:06:39;13.93;;;5.85;;
52266;SDS011;38223;50.940;4.034;2023-05-07T04:09:14;7.75;;;5.28;;
52266;SDS011;38223;50.940;4.034;2023-05-07T04:12:00;11.78;;;5.97;;
52266;SDS011;38223;50.940;4.034;2023-05-07T04:14:33;7.85;;;5.33;;
52266;SDS011;38223;50.940;4.034;2023-05-07T04:17:05;11.48;;;5.60;;
52266;SDS011;38223;50.940;4.034;2023-05-07T04:19:39;8.05;;;5.20;;
52266;SDS011;38223;50.940;4.034;2023-05-07T04:22:09;10.72;;;5.62;;
52266;SDS011;38223;50.940;4.034;2023-05-07T04:24:44;10.88;;;5.80;;
52266;SDS011;38223;50.940;4.034;2023-05-07T04:27:13;12.60;;;5.55;;
52266;SDS011;38223;50.940;4.034;2023-05-07T04:29:47;11.83;;;5.58;;
52266;SDS011;38223;50.940;4.034;2023-05-07T04:32:17;10.18;;;5.80;;
52266;SDS011;38223;50.940;4.034;2023-05-07T04:34:51;9.18;;;5.15;;
52266;SDS011;38223;50.940;4.034;2023-05-07T04:37:25;11.03;;;5.47;;
52266;SDS011;38223;50.940;4.034;2023-05-07T04:39:58;13.43;;;5.83;;
52266;SDS011;38223;50.940;4.034;2023-05-07T04:42:35;14.58;;;6.40;;
52266;SDS011;38223;50.940;4.034;2023-05-07T04:45:05;8.33;;;6.05;;
52266;SDS011;38223;50.940;4.034;2023-05-07T04:47:34;13.13;;;5.40;;
52266;SDS011;38223;50.940;4.034;2023-05-07T04:50:07;13.70;;;5.75;;
52266;SDS011;38223;50.940;4.034;2023-05-07T04:52:42;10.25;;;5.92;;
52266;SDS011;38223;50.940;4.034;2023-05-07T04:55:11;11.28;;;5.60;;
52266;SDS011;38223;50.940;4.034;2023-05-07T04:57:44;10.13;;;5.72;;
52266;SDS011;38223;50.940;4.034;2023-05-07T05:00:13;9.93;;;5.50;;
52266;SDS011;38223;50.940;4.034;2023-05-07T05:02:47;12.03;;;5.92;;
52266;SDS011;38223;50.940;4.034;2023-05-07T05:05:19;9.45;;;4.92;;
52266;SDS011;38223;50.940;4.034;2023-05-07T05:07:56;12.47;;;6.03;;
52266;SDS011;38223;50.940;4.034;2023-05-07T05:12:57;7.85;;;5.75;;
52266;SDS011;38223;50.940;4.034;2023-05-07T05:15:27;11.20;;;6.08;;
52266;SDS011;38223;50.940;4.034;2023-05-07T05:18:01;13.93;;;6.67;;
52266;SDS011;38223;50.940;4.034;2023-05-07T05:20:30;9.65;;;6.03;;
52266;SDS011;38223;50.940;4.034;2023-05-07T05:25:31;14.10;;;6.22;;
52266;SDS011;38223;50.940;4.034;2023-05-07T05:28:03;9.13;;;6.55;;
52266;SDS011;38223;50.940;4.034;2023-05-07T05:30:32;12.10;;;7.00;;
52266;SDS011;38223;50.940;4.034;2023-05-07T05:33:03;8.88;;;7.17;;
52266;SDS011;38223;50.940;4.034;2023-05-07T05:35:37;13.58;;;7.22;;
52266;SDS011;38223;50.940;4.034;2023-05-07T05:38:07;13.60;;;7.20;;
52266;SDS011;38223;50.940;4.034;2023-05-07T05:40:43;13.40;;;7.42;;
52266;SDS011;38223;50.940;4.034;2023-05-07T05:43:13;13.08;;;7.28;;
52266;SDS011;38223;50.940;4.034;2023-05-07T05:45:47;10.45;;;7.47;;
52266;SDS011;38223;50.940;4.034;2023-05-07T05:48:17;12.78;;;7.12;;
52266;SDS011;38223;50.940;4.034;2023-05-07T05:50:54;12.03;;;6.65;;
52266;SDS011;38223;50.940;4.034;2023-05-07T05:53:24;16.23;;;6.33;;
52266;SDS011;38223;50.940;4.034;2023-05-07T05:55:57;10.05;;;5.80;;
52266;SDS011;38223;50.940;4.034;2023-05-07T05:58:29;9.90;;;6.95;;
52266;SDS011;38223;50.940;4.034;2023-05-07T06:01:03;11.33;;;6.53;;
52266;SDS011;38223;50.940;4.034;2023-05-07T06:03:32;12.37;;;7.00;;
52266;SDS011;38223;50.940;4.034;2023-05-07T06:06:02;16.97;;;7.08;;
52266;SDS011;38223;50.940;4.034;2023-05-07T06:08:31;13.50;;;7.30;;
52266;SDS011;38223;50.940;4.034;2023-05-07T06:11:04;12.18;;;6.42;;
52266;SDS011;38223;50.940;4.034;2023-05-07T06:13:36;8.60;;;6.45;;
52266;SDS011;38223;50.940;4.034;2023-05-07T06:16:09;14.40;;;6.83;;
52266;SDS011;38223;50.940;4.034;2023-05-07T06:18:38;10.03;;;6.17;;
52266;SDS011;38223;50.940;4.034;2023-05-07T06:21:11;8.30;;;6.00;;
52266;SDS011;38223;50.940;4.034;2023-05-07T06:23:40;9.73;;;6.90;;
52266;SDS011;38223;50.940;4.034;2023-05-07T06:26:10;12.18;;;6.42;;
52266;SDS011;38223;50.940;4.034;2023-05-07T06:28:39;11.50;;;7.10;;
52266;SDS011;38223;50.940;4.034;2023-05-07T06:31:17;12.20;;;6.53;;
52266;SDS011;38223;50.940;4.034;2023-05-07T06:33:49;15.28;;;7.08;;
52266;SDS011;38223;50.940;4.034;2023-05-07T06:36:26;9.88;;;6.47;;
52266;SDS011;38223;50.940;4.034;2023-05-07T06:38:56;11.85;;;7.33;;
52266;SDS011;38223;50.940;4.034;2023-05-07T06:41:28;12.82;;;7.30;;
52266;SDS011;38223;50.940;4.034;2023-05-07T06:43:59;11.33;;;6.80;;
52266;SDS011;38223;50.940;4.034;2023-05-07T06:46:30;16.90;;;7.08;;
52266;SDS011;38223;50.940;4.034;2023-05-07T06:49:05;13.35;;;7.67;;
52266;SDS011;38223;50.940;4.034;2023-05-07T06:51:39;11.83;;;7.60;;
52266;SDS011;38223;50.940;4.034;2023-05-07T06:54:08;10.68;;;6.55;;
52266;SDS011;38223;50.940;4.034;2023-05-07T06:56:41;14.85;;;8.05;;
52266;SDS011;38223;50.940;4.034;2023-05-07T06:59:19;10.85;;;7.20;;
52266;SDS011;38223;50.940;4.034;2023-05-07T07:01:49;11.88;;;6.47;;
52266;SDS011;38223;50.940;4.034;2023-05-07T07:04:23;8.53;;;5.95;;
52266;SDS011;38223;50.940;4.034;2023-05-07T07:06:53;16.75;;;5.72;;
52266;SDS011;38223;50.940;4.034;2023-05-07T07:09:30;11.38;;;6.15;;
52266;SDS011;38223;50.940;4.034;2023-05-07T07:11:59;11.48;;;5.33;;
52266;SDS011;38223;50.940;4.034;2023-05-07T07:17:04;12.18;;;5.33;;
52266;SDS011;38223;50.940;4.034;2023-05-07T07:22:02;6.33;;;4.70;;
52266;SDS011;38223;50.940;4.034;2023-05-07T07:24:35;11.57;;;4.80;;
52266;SDS011;38223;50.940;4.034;2023-05-07T07:27:05;8.13;;;4.85;;
52266;SDS011;38223;50.940;4.034;2023-05-07T07:29:36;11.45;;;5.62;;
52266;SDS011;38223;50.940;4.034;2023-05-07T07:32:09;7.83;;;4.72;;
52266;SDS011;38223;50.940;4.034;2023-05-07T07:34:45;7.35;;;4.55;;
52266;SDS011;38223;50.940;4.034;2023-05-07T07:37:17;7.37;;;5.17;;
52266;SDS011;38223;50.940;4.034;2023-05-07T07:39:49;10.13;;;5.30;;
52266;SDS011;38223;50.940;4.034;2023-05-07T07:42:22;7.67;;;5.00;;
52266;SDS011;38223;50.940;4.034;2023-05-07T07:44:52;6.92;;;5.03;;
52266;SDS011;38223;50.940;4.034;2023-05-07T07:47:23;9.65;;;5.08;;
52266;SDS011;38223;50.940;4.034;2023-05-07T07:49:56;9.18;;;5.00;;
52266;SDS011;38223;50.940;4.034;2023-05-07T07:52:26;9.05;;;4.85;;
52266;SDS011;38223;50.940;4.034;2023-05-07T07:54:58;7.45;;;4.67;;
52266;SDS011;38223;50.940;4.034;2023-05-07T07:57:30;9.40;;;4.85;;
52266;SDS011;38223;50.940;4.034;2023-05-07T08:00:03;7.42;;;4.83;;
52266;SDS011;38223;50.940;4.034;2023-05-07T08:02:40;9.43;;;5.05;;
52266;SDS011;38223;50.940;4.034;2023-05-07T08:05:09;8.00;;;5.00;;
52266;SDS011;38223;50.940;4.034;2023-05-07T08:07:41;8.00;;;4.67;;
52266;SDS011;38223;50.940;4.034;2023-05-07T08:10:20;9.15;;;5.35;;
52266;SDS011;38223;50.940;4.034;2023-05-07T08:12:49;8.35;;;5.42;;
52266;SDS011;38223;50.940;4.034;2023-05-07T08:15:23;10.68;;;5.80;;
52266;SDS011;38223;50.940;4.034;2023-05-07T08:17:54;12.03;;;6.90;;
52266;SDS011;38223;50.940;4.034;2023-05-07T08:22:55;15.90;;;8.60;;
52266;SDS011;38223;50.940;4.034;2023-05-07T08:25:29;12.60;;;8.50;;
52266;SDS011;38223;50.940;4.034;2023-05-07T08:27:59;19.57;;;8.83;;
52266;SDS011;38223;50.940;4.034;2023-05-07T08:30:36;11.40;;;8.00;;
52266;SDS011;38223;50.940;4.034;2023-05-07T08:33:08;8.40;;;6.95;;
52266;SDS011;38223;50.940;4.034;2023-05-07T08:35:40;10.28;;;6.92;;
52266;SDS011;38223;50.940;4.034;2023-05-07T08:38:12;9.78;;;6.22;;
52266;SDS011;38223;50.940;4.034;2023-05-07T08:40:46;11.75;;;6.30;;
52266;SDS011;38223;50.940;4.034;2023-05-07T08:43:16;8.18;;;6.15;;
52266;SDS011;38223;50.940;4.034;2023-05-07T08:45:50;9.23;;;5.80;;
52266;SDS011;38223;50.940;4.034;2023-05-07T08:48:21;9.88;;;6.15;;
52266;SDS011;38223;50.940;4.034;2023-05-07T08:50:57;11.78;;;5.75;;
52266;SDS011;38223;50.940;4.034;2023-05-07T08:53:26;9.75;;;6.10;;
52266;SDS011;38223;50.940;4.034;2023-05-07T08:56:15;12.53;;;6.30;;
52266;SDS011;38223;50.940;4.034;2023-05-07T08:58:47;13.38;;;7.95;;
52266;SDS011;38223;50.940;4.034;2023-05-07T09:01:16;12.78;;;7.03;;
52266;SDS011;38223;50.940;4.034;2023-05-07T09:03:49;13.20;;;7.05;;
52266;SDS011;38223;50.940;4.034;2023-05-07T09:06:21;10.50;;;6.20;;
52266;SDS011;38223;50.940;4.034;2023-05-07T09:08:53;9.95;;;5.60;;
52266;SDS011;38223;50.940;4.034;2023-05-07T09:11:28;10.40;;;5.53;;
52266;SDS011;38223;50.940;4.034;2023-05-07T09:13:57;10.00;;;6.15;;
52266;SDS011;38223;50.940;4.034;2023-05-07T09:16:34;9.40;;;5.65;;
52266;SDS011;38223;50.940;4.034;2023-05-07T09:19:05;9.95;;;6.50;;
52266;SDS011;38223;50.940;4.034;2023-05-07T09:21:35;9.55;;;4.97;;
52266;SDS011;38223;50.940;4.034;2023-05-07T09:24:14;9.85;;;5.03;;
52266;SDS011;38223;50.940;4.034;2023-05-07T09:26:42;7.50;;;4.47;;
52266;SDS011;38223;50.940;4.034;2023-05-07T09:29:15;11.28;;;4.87;;
52266;SDS011;38223;50.940;4.034;2023-05-07T09:31:48;7.90;;;4.90;;
52266;SDS011;38223;50.940;4.034;2023-05-07T09:34:21;7.00;;;4.62;;
52266;SDS011;38223;50.940;4.034;2023-05-07T09:37:04;7.53;;;4.33;;
52266;SDS011;38223;50.940;4.034;2023-05-07T09:39:44;6.78;;;4.72;;
52266;SDS011;38223;50.940;4.034;2023-05-07T09:42:14;9.48;;;5.33;;
52266;SDS011;38223;50.940;4.034;2023-05-07T09:44:46;6.80;;;4.25;;
52266;SDS011;38223;50.940;4.034;2023-05-07T09:47:23;7.50;;;3.62;;
52266;SDS011;38223;50.940;4.034;2023-05-07T09:50:03;8.28;;;3.85;;
52266;SDS011;38223;50.940;4.034;2023-05-07T09:52:36;8.23;;;4.58;;
52266;SDS011;38223;50.940;4.034;2023-05-07T09:55:06;6.20;;;4.17;;
52266;SDS011;38223;50.940;4.034;2023-05-07T09:57:46;7.15;;;5.10;;
52266;SDS011;38223;50.940;4.034;2023-05-07T10:00:18;7.03;;;4.47;;
52266;SDS011;38223;50.940;4.034;2023-05-07T10:02:52;10.20;;;4.28;;
52266;SDS011;38223;50.940;4.034;2023-05-07T10:05:25;7.05;;;4.03;;
52266;SDS011;38223;50.940;4.034;2023-05-07T10:07:55;7.22;;;4.60;;
52266;SDS011;38223;50.940;4.034;2023-05-07T10:10:31;9.85;;;5.00;;
52266;SDS011;38223;50.940;4.034;2023-05-07T10:13:01;8.13;;;4.92;;
52266;SDS011;38223;50.940;4.034;2023-05-07T10:15:34;8.28;;;5.15;;
52266;SDS011;38223;50.940;4.034;2023-05-07T10:18:08;8.48;;;5.20;;
52266;SDS011;38223;50.940;4.034;2023-05-07T10:20:37;5.53;;;4.25;;
52266;SDS011;38223;50.940;4.034;2023-05-07T10:23:15;5.17;;;3.70;;
52266;SDS011;38223;50.940;4.034;2023-05-07T10:25:45;4.22;;;3.83;;
52266;SDS011;38223;50.940;4.034;2023-05-07T10:28:20;7.45;;;4.72;;
52266;SDS011;38223;50.940;4.034;2023-05-07T10:33:43;6.62;;;4.75;;
52266;SDS011;38223;50.940;4.034;2023-05-07T10:36:13;7.97;;;5.17;;
52266;SDS011;38223;50.940;4.034;2023-05-07T10:38:49;5.95;;;5.35;;
52266;SDS011;38223;50.940;4.034;2023-05-07T10:41:19;7.55;;;5.40;;
52266;SDS011;38223;50.940;4.034;2023-05-07T10:43:51;6.28;;;5.33;;
52266;SDS011;38223;50.940;4.034;2023-05-07T10:46:26;7.17;;;5.50;;
52266;SDS011;38223;50.940;4.034;2023-05-07T10:51:39;6.85;;;5.42;;
52266;SDS011;38223;50.940;4.034;2023-05-07T10:56:47;8.63;;;6.90;;
52266;SDS011;38223;50.940;4.034;2023-05-07T11:02:04;7.80;;;6.37;;
52266;SDS011;38223;50.940;4.034;2023-05-07T11:04:34;7.12;;;6.50;;
52266;SDS011;38223;50.940;4.034;2023-05-07T11:15:13;6.95;;;6.05;;
52266;SDS011;38223;50.940;4.034;2023-05-07T11:17:57;11.10;;;8.55;;
52266;SDS011;38223;50.940;4.034;2023-05-07T11:26:08;7.28;;;6.62;;
52266;SDS011;38223;50.940;4.034;2023-05-07T11:28:44;7.12;;;6.40;;
52266;SDS011;38223;50.940;4.034;2023-05-07T11:31:14;8.13;;;7.33;;
52266;SDS011;38223;50.940;4.034;2023-05-07T11:33:48;9.20;;;7.17;;
52266;SDS011;38223;50.940;4.034;2023-05-07T11:36:24;6.30;;;5.78;;
52266;SDS011;38223;50.940;4.034;2023-05-07T11:38:52;6.87;;;5.30;;
52266;SDS011;38223;50.940;4.034;2023-05-07T11:41:35;6.15;;;5.65;;
52266;SDS011;38223;50.940;4.034;2023-05-07T11:44:02;6.08;;;5.50;;
52266;SDS011;38223;50.940;4.034;2023-05-07T11:46:42;5.80;;;5.20;;
52266;SDS011;38223;50.940;4.034;2023-05-07T11:49:10;5.20;;;4.72;;
52266;SDS011;38223;50.940;4.034;2023-05-07T11:51:44;4.78;;;4.20;;
52266;SDS011;38223;50.940;4.034;2023-05-07T11:54:15;5.15;;;4.35;;
52266;SDS011;38223;50.940;4.034;2023-05-07T11:56:47;4.95;;;4.50;;
52266;SDS011;38223;50.940;4.034;2023-05-07T11:59:17;5.53;;;4.55;;
52266;SDS011;38223;50.940;4.034;2023-05-07T12:01:51;5.15;;;4.33;;
52266;SDS011;38223;50.940;4.034;2023-05-07T12:04:26;4.55;;;4.15;;
52266;SDS011;38223;50.940;4.034;2023-05-07T12:06:59;5.05;;;3.62;;
52266;SDS011;38223;50.940;4.034;2023-05-07T12:09:29;5.33;;;4.10;;
52266;SDS011;38223;50.940;4.034;2023-05-07T12:12:06;5.50;;;3.62;;
52266;SDS011;38223;50.940;4.034;2023-05-07T12:14:40;3.15;;;2.95;;
52266;SDS011;38223;50.940;4.034;2023-05-07T12:17:17;3.58;;;2.98;;
52266;SDS011;38223;50.940;4.034;2023-05-07T12:19:50;3.42;;;2.35;;
52266;SDS011;38223;50.940;4.034;2023-05-07T12:22:26;4.33;;;2.45;;
52266;SDS011;38223;50.940;4.034;2023-05-07T12:24:59;3.25;;;2.65;;
52266;SDS011;38223;50.940;4.034;2023-05-07T12:27:36;2.30;;;2.10;;
52266;SDS011;38223;50.940;4.034;2023-05-07T12:30:08;2.50;;;2.15;;
52266;SDS011;38223;50.940;4.034;2023-05-07T12:32:40;2.77;;;2.27;;
52266;SDS011;38223;50.940;4.034;2023-05-07T12:35:11;4.50;;;2.62;;
52266;SDS011;38223;50.940;4.034;2023-05-07T12:37:54;3.20;;;2.47;;
52266;SDS011;38223;50.940;4.034;2023-05-07T12:40:41;4.92;;;4.30;;
52266;SDS011;38223;50.940;4.034;2023-05-07T12:43:18;6.90;;;6.40;;
52266;SDS011;38223;50.940;4.034;2023-05-07T12:45:52;5.45;;;5.15;;
52266;SDS011;38223;50.940;4.034;2023-05-07T12:48:27;5.10;;;4.62;;
52266;SDS011;38223;50.940;4.034;2023-05-07T12:51:01;6.12;;;5.53;;
52266;SDS011;38223;50.940;4.034;2023-05-07T12:53:39;6.30;;;5.80;;
52266;SDS011;38223;50.940;4.034;2023-05-07T12:56:12;13.45;;;12.23;;
52266;SDS011;38223;50.940;4.034;2023-05-07T12:58:50;8.68;;;7.97;;
52266;SDS011;38223;50.940;4.034;2023-05-07T13:01:28;8.13;;;7.53;;
52266;SDS011;38223;50.940;4.034;2023-05-07T13:04:00;7.67;;;7.15;;
52266;SDS011;38223;50.940;4.034;2023-05-07T13:06:37;7.45;;;6.85;;
52266;SDS011;38223;50.940;4.034;2023-05-07T13:09:09;6.75;;;6.25;;
52266;SDS011;38223;50.940;4.034;2023-05-07T13:11:49;6.45;;;5.72;;
52266;SDS011;38223;50.940;4.034;2023-05-07T13:14:22;6.33;;;5.70;;
52266;SDS011;38223;50.940;4.034;2023-05-07T13:16:57;5.50;;;4.70;;
52266;SDS011;38223;50.940;4.034;2023-05-07T13:19:34;5.15;;;4.47;;
52266;SDS011;38223;50.940;4.034;2023-05-07T13:22:08;7.30;;;5.47;;
52266;SDS011;38223;50.940;4.034;2023-05-07T13:24:39;7.25;;;5.15;;
52266;SDS011;38223;50.940;4.034;2023-05-07T13:27:13;5.87;;;5.37;;
52266;SDS011;38223;50.940;4.034;2023-05-07T13:29:43;6.42;;;5.20;;
52266;SDS011;38223;50.940;4.034;2023-05-07T13:32:17;4.90;;;4.50;;
52266;SDS011;38223;50.940;4.034;2023-05-07T13:34:50;5.05;;;4.65;;
52266;SDS011;38223;50.940;4.034;2023-05-07T13:37:22;5.47;;;4.87;;
52266;SDS011;38223;50.940;4.034;2023-05-07T13:39:58;5.60;;;5.17;;
52266;SDS011;38223;50.940;4.034;2023-05-07T13:42:31;5.37;;;4.87;;
52266;SDS011;38223;50.940;4.034;2023-05-07T13:45:03;5.72;;;5.12;;
52266;SDS011;38223;50.940;4.034;2023-05-07T13:47:34;6.05;;;5.15;;
52266;SDS011;38223;50.940;4.034;2023-05-07T13:50:05;5.92;;;5.50;;
52266;SDS011;38223;50.940;4.034;2023-05-07T13:52:44;6.10;;;5.50;;
52266;SDS011;38223;50.940;4.034;2023-05-07T13:55:17;5.92;;;5.30;;
52266;SDS011;38223;50.940;4.034;2023-05-07T13:57:54;6.03;;;5.45;;
52266;SDS011;38223;50.940;4.034;2023-05-07T14:00:28;6.20;;;5.65;;
52266;SDS011;38223;50.940;4.034;2023-05-07T14:03:03;6.17;;;5.58;;
52266;SDS011;38223;50.940;4.034;2023-05-07T14:05:39;6.10;;;5.50;;
52266;SDS011;38223;50.940;4.034;2023-05-07T14:08:13;6.67;;;5.78;;
52266;SDS011;38223;50.940;4.034;2023-05-07T14:10:43;6.30;;;5.80;;
52266;SDS011;38223;50.940;4.034;2023-05-07T14:13:20;6.75;;;6.12;;
52266;SDS011;38223;50.940;4.034;2023-05-07T14:15:52;7.25;;;6.37;;
52266;SDS011;38223;50.940;4.034;2023-05-07T14:18:30;7.42;;;6.12;;
52266;SDS011;38223;50.940;4.034;2023-05-07T14:21:04;6.25;;;5.65;;
52266;SDS011;38223;50.940;4.034;2023-05-07T14:23:44;6.97;;;6.28;;
52266;SDS011;38223;50.940;4.034;2023-05-07T14:26:25;7.10;;;6.37;;
52266;SDS011;38223;50.940;4.034;2023-05-07T14:29:02;8.48;;;7.67;;
52266;SDS011;38223;50.940;4.034;2023-05-07T14:31:38;8.65;;;7.90;;
52266;SDS011;38223;50.940;4.034;2023-05-07T14:34:16;8.18;;;7.45;;
52266;SDS011;38223;50.940;4.034;2023-05-07T14:36:51;7.80;;;7.10;;
52266;SDS011;38223;50.940;4.034;2023-05-07T14:39:26;7.62;;;6.83;;
52266;SDS011;38223;50.940;4.034;2023-05-07T14:42:02;9.40;;;7.08;;
52266;SDS011;38223;50.940;4.034;2023-05-07T14:44:39;8.93;;;7.92;;
52266;SDS011;38223;50.940;4.034;2023-05-07T14:47:17;8.90;;;8.00;;
52266;SDS011;38223;50.940;4.034;2023-05-07T14:50:04;8.05;;;7.25;;
52266;SDS011;38223;50.940;4.034;2023-05-07T14:52:39;9.63;;;8.68;;
52266;SDS011;38223;50.940;4.034;2023-05-07T14:57:52;12.40;;;10.13;;
52266;SDS011;38223;50.940;4.034;2023-05-07T15:00:28;9.83;;;9.05;;
52266;SDS011;38223;50.940;4.034;2023-05-07T15:03:03;10.95;;;9.63;;
52266;SDS011;38223;50.940;4.034;2023-05-07T15:05:36;11.05;;;9.95;;
52266;SDS011;38223;50.940;4.034;2023-05-07T15:08:07;12.58;;;9.50;;
52266;SDS011;38223;50.940;4.034;2023-05-07T15:10:43;10.95;;;9.93;;
52266;SDS011;38223;50.940;4.034;2023-05-07T15:13:14;10.72;;;9.70;;
52266;SDS011;38223;50.940;4.034;2023-05-07T15:15:44;11.80;;;10.60;;
52266;SDS011;38223;50.940;4.034;2023-05-07T15:18:15;11.10;;;9.98;;
52266;SDS011;38223;50.940;4.034;2023-05-07T15:21:03;12.25;;;11.12;;
52266;SDS011;38223;50.940;4.034;2023-05-07T15:23:40;13.10;;;11.73;;
52266;SDS011;38223;50.940;4.034;2023-05-07T15:26:20;12.93;;;11.50;;
52266;SDS011;38223;50.940;4.034;2023-05-07T15:28:59;11.12;;;9.93;;
52266;SDS011;38223;50.940;4.034;2023-05-07T15:31:34;13.62;;;10.32;;
52266;SDS011;38223;50.940;4.034;2023-05-07T15:34:17;10.78;;;9.73;;
52266;SDS011;38223;50.940;4.034;2023-05-07T15:36:51;11.83;;;10.45;;
52266;SDS011;38223;50.940;4.034;2023-05-07T15:39:26;11.93;;;10.68;;
52266;SDS011;38223;50.940;4.034;2023-05-07T15:42:21;13.55;;;10.43;;
52266;SDS011;38223;50.940;4.034;2023-05-07T15:44:53;12.00;;;10.35;;
52266;SDS011;38223;50.940;4.034;2023-05-07T15:47:27;11.50;;;10.40;;
52266;SDS011;38223;50.940;4.034;2023-05-07T15:50:04;14.70;;;10.78;;
52266;SDS011;38223;50.940;4.034;2023-05-07T15:52:46;12.35;;;10.82;;
52266;SDS011;38223;50.940;4.034;2023-05-07T15:55:25;13.98;;;11.60;;
52266;SDS011;38223;50.940;4.034;2023-05-07T15:57:56;13.50;;;12.10;;
52266;SDS011;38223;50.940;4.034;2023-05-07T16:00:40;15.98;;;13.18;;
52266;SDS011;38223;50.940;4.034;2023-05-07T16:03:21;15.10;;;12.68;;
52266;SDS011;38223;50.940;4.034;2023-05-07T16:05:59;18.67;;;13.70;;
52266;SDS011;38223;50.940;4.034;2023-05-07T16:08:52;17.30;;;13.58;;